createdAt,value
2023-02-18T00:00:03.771Z,88.80
2023-02-18T00:01:03.742Z,87.77
2023-02-18T00:02:03.769Z,88.39
2023-02-18T00:03:03.710Z,89.38
2023-02-18T00:04:03.720Z,89.17
2023-02-18T00:05:03.693Z,89.32
2023-02-18T00:06:03.653Z,89.56
2023-02-18T00:07:03.642Z,90.25
2023-02-18T00:08:03.615Z,89.11
2023-02-18T00:09:03.662Z,89.22
2023-02-18T00:10:03.581Z,89.11
2023-02-18T00:11:03.563Z,88.39
2023-02-18T00:12:03.548Z,89.22
2023-02-18T00:13:03.552Z,89.52
2023-02-18T00:14:03.511Z,89.83
2023-02-18T00:15:03.523Z,89.79
2023-02-18T00:16:03.557Z,91.38
2023-02-18T00:17:03.458Z,90.25
2023-02-18T00:18:03.436Z,89.42
2023-02-18T00:19:03.417Z,89.83
2023-02-18T00:20:03.399Z,91.73
2023-02-18T00:21:03.408Z,91.94
2023-02-18T00:22:03.368Z,92.04
2023-02-18T00:23:03.353Z,91.98
2023-02-18T00:24:03.340Z,91.98
2023-02-18T00:25:03.336Z,92.70
2023-02-18T00:26:03.326Z,92.40
2023-02-18T00:27:03.276Z,93.26
2023-02-18T00:28:03.273Z,92.74
2023-02-18T00:29:03.247Z,93.88
2023-02-18T00:30:03.224Z,94.40
2023-02-18T00:31:03.233Z,94.40
2023-02-18T00:32:03.329Z,94.71
2023-02-18T00:33:03.162Z,94.71
2023-02-18T00:34:03.159Z,94.40
2023-02-18T00:35:03.136Z,95.12
2023-02-18T00:36:03.111Z,94.92
2023-02-18T00:37:03.119Z,95.02
2023-02-18T00:38:03.077Z,94.96
2023-02-18T00:39:03.055Z,95.27
2023-02-18T00:40:03.044Z,94.92
2023-02-18T00:41:03.019Z,94.75
2023-02-18T00:42:03.006Z,95.17
2023-02-18T00:43:02.994Z,95.17
2023-02-18T00:44:02.969Z,94.96
2023-02-18T00:45:02.947Z,95.89
2023-02-18T00:46:02.965Z,95.48
2023-02-18T00:47:02.946Z,95.62
2023-02-18T00:48:02.905Z,95.99
2023-02-18T00:49:02.874Z,95.99
2023-02-18T00:50:02.857Z,95.89
2023-02-18T00:51:02.864Z,96.82
2023-02-18T00:52:02.855Z,96.61
2023-02-18T00:53:02.808Z,96.86
2023-02-18T00:54:02.822Z,97.13
2023-02-18T00:55:02.778Z,97.59
2023-02-18T00:56:02.753Z,97.13
2023-02-18T00:57:02.734Z,97.02
2023-02-18T00:58:02.717Z,97.59
2023-02-18T00:59:02.741Z,97.07
2023-02-18T01:00:02.677Z,97.23
2023-02-18T01:01:02.656Z,97.54
2023-02-18T01:02:02.651Z,97.44
2023-02-18T01:03:02.624Z,96.51
2023-02-18T01:04:02.627Z,97.33
2023-02-18T01:05:02.615Z,97.44
2023-02-18T01:06:02.573Z,97.13
2023-02-18T01:07:02.622Z,97.29
2023-02-18T01:08:02.541Z,97.23
2023-02-18T01:09:02.514Z,97.50
2023-02-18T01:10:02.525Z,97.81
2023-02-18T01:11:02.496Z,97.29
2023-02-18T01:12:02.495Z,97.08
2023-02-18T01:13:02.470Z,97.50
2023-02-18T01:14:02.459Z,96.88
2023-02-18T01:15:02.434Z,97.39
2023-02-18T01:16:02.462Z,97.29
2023-02-18T01:17:02.420Z,98.32
2023-02-18T01:18:02.359Z,98.63
2023-02-18T01:19:02.339Z,98.74
2023-02-18T01:20:02.328Z,98.43
2023-02-18T01:21:02.303Z,98.38
2023-02-18T01:22:02.283Z,99.10
2023-02-18T01:23:02.294Z,99.00
2023-02-18T01:24:02.273Z,99.00
2023-02-18T01:25:02.231Z,98.69
2023-02-18T01:26:02.212Z,98.79
2023-02-18T01:27:02.194Z,98.90
2023-02-18T01:28:02.182Z,98.69
2023-02-18T01:29:02.196Z,99.21
2023-02-18T01:30:02.232Z,98.49
2023-02-18T01:31:02.207Z,99.31
2023-02-18T01:32:02.273Z,99.10
2023-02-18T01:33:02.130Z,99.00
2023-02-18T01:34:02.099Z,99.10
2023-02-18T01:35:02.051Z,99.00
2023-02-18T01:36:02.051Z,99.16
2023-02-18T01:37:02.066Z,99.26
2023-02-18T01:38:01.994Z,99.99
2023-02-18T01:39:01.978Z,99.99
2023-02-18T01:40:01.957Z,99.99
2023-02-18T01:41:01.938Z,99.99
2023-02-18T01:42:01.919Z,99.99
2023-02-18T01:43:01.910Z,99.99
2023-02-18T01:44:01.885Z,99.99
2023-02-18T01:45:01.868Z,99.99
2023-02-18T01:46:01.841Z,99.99
2023-02-18T01:47:01.840Z,99.99
2023-02-18T01:48:01.827Z,99.99
2023-02-18T01:49:01.795Z,99.99
2023-02-18T01:50:01.784Z,99.99
2023-02-18T01:51:01.777Z,99.99
2023-02-18T01:52:01.737Z,99.99
2023-02-18T01:53:01.774Z,99.99
2023-02-18T01:54:01.698Z,99.99
2023-02-18T01:55:01.691Z,99.99
2023-02-18T01:56:01.659Z,99.99
2023-02-18T01:57:01.667Z,99.99
2023-02-18T01:58:01.631Z,99.99
2023-02-18T01:59:01.647Z,99.99
2023-02-18T02:00:01.597Z,99.99
2023-02-18T02:01:01.633Z,99.99
2023-02-18T02:02:01.586Z,99.99
2023-02-18T02:03:01.549Z,99.99
2023-02-18T02:04:01.520Z,99.99
2023-02-18T02:05:01.533Z,99.99
2023-02-18T02:06:01.485Z,99.99
2023-02-18T02:07:01.473Z,99.99
2023-02-18T02:08:01.454Z,99.99
2023-02-18T02:09:01.479Z,99.99
2023-02-18T02:10:01.437Z,99.99
2023-02-18T02:11:01.397Z,99.99
2023-02-18T02:12:01.378Z,99.99
2023-02-18T02:13:01.386Z,99.99
2023-02-18T02:14:01.344Z,99.99
2023-02-18T02:15:01.354Z,99.99
2023-02-18T02:16:01.372Z,99.99
2023-02-18T02:17:01.321Z,99.99
2023-02-18T02:18:01.277Z,99.99
2023-02-18T02:19:01.264Z,99.99
2023-02-18T02:20:01.306Z,99.99
2023-02-18T02:21:01.221Z,99.99
2023-02-18T02:22:01.211Z,99.99
2023-02-18T02:23:01.199Z,99.99
2023-02-18T02:24:01.166Z,99.99
2023-02-18T02:25:01.150Z,99.99
2023-02-18T02:26:01.186Z,99.99
2023-02-18T02:27:01.153Z,99.99
2023-02-18T02:28:01.094Z,99.99
2023-02-18T02:29:01.107Z,99.99
2023-02-18T02:30:01.099Z,99.99
2023-02-18T02:31:01.158Z,99.99
2023-02-18T02:32:01.131Z,99.99
2023-02-18T02:33:01.014Z,99.99
2023-02-18T02:34:00.996Z,99.99
2023-02-18T02:35:00.973Z,99.99
2023-02-18T02:36:00.954Z,99.99
2023-02-18T02:37:00.941Z,99.99
2023-02-18T02:38:00.919Z,99.99
2023-02-18T02:39:00.914Z,99.99
2023-02-18T02:40:00.881Z,99.99
2023-02-18T02:41:00.870Z,99.99
2023-02-18T02:42:00.878Z,99.99
2023-02-18T02:43:00.855Z,99.99
2023-02-18T02:44:00.816Z,99.99
2023-02-18T02:45:00.798Z,99.99
2023-02-18T02:46:00.845Z,99.99
2023-02-18T02:47:00.766Z,99.99
2023-02-18T02:48:00.787Z,99.99
2023-02-18T02:49:00.751Z,99.99
2023-02-18T02:50:00.728Z,99.99
2023-02-18T02:51:00.730Z,99.99
2023-02-18T02:52:00.679Z,99.99
2023-02-18T02:53:00.703Z,99.99
2023-02-18T02:54:00.658Z,99.99
2023-02-18T02:55:00.631Z,99.99
2023-02-18T02:56:00.608Z,99.99
2023-02-18T02:57:00.596Z,99.99
2023-02-18T02:58:00.568Z,99.99
2023-02-18T02:59:00.586Z,99.99
2023-02-18T03:00:00.545Z,99.99
2023-02-18T03:01:00.536Z,99.99
2023-02-18T03:02:00.509Z,99.99
2023-02-18T03:03:00.551Z,99.99
2023-02-18T03:04:00.526Z,99.99
2023-02-18T03:05:00.504Z,99.99
2023-02-18T03:06:00.436Z,99.99
2023-02-18T03:07:00.418Z,99.99
2023-02-18T03:08:00.403Z,99.99
2023-02-18T03:09:00.397Z,99.99
2023-02-18T03:10:00.365Z,99.99
2023-02-18T03:11:00.379Z,99.99
2023-02-18T03:12:00.339Z,99.99
2023-02-18T03:13:00.311Z,99.99
2023-02-18T03:14:00.291Z,99.99
2023-02-18T03:15:00.285Z,99.99
2023-02-18T03:16:00.263Z,99.99
2023-02-18T03:17:00.261Z,99.99
2023-02-18T03:18:00.221Z,99.99
2023-02-18T03:19:00.256Z,99.99
2023-02-18T03:20:00.220Z,99.99
2023-02-18T03:21:00.178Z,99.99
2023-02-18T03:22:00.170Z,99.99
2023-02-18T03:23:00.141Z,99.99
2023-02-18T03:24:00.142Z,99.99
2023-02-18T03:25:00.112Z,99.99
2023-02-18T03:26:00.146Z,99.99
2023-02-18T03:27:00.070Z,99.99
2023-02-18T03:28:00.048Z,99.99
2023-02-18T03:29:00.029Z,99.99
2023-02-18T03:30:00.051Z,99.99
2023-02-18T03:31:00.004Z,99.99
2023-02-18T03:32:00.074Z,99.99
2023-02-18T03:32:59.967Z,99.99
2023-02-18T03:33:59.944Z,99.99
2023-02-18T03:34:59.924Z,99.99
2023-02-18T03:35:59.922Z,99.99
2023-02-18T03:36:59.924Z,99.99
2023-02-18T03:37:59.879Z,99.99
2023-02-18T03:38:59.874Z,99.99
2023-02-18T03:39:59.851Z,99.99
2023-02-18T03:40:59.829Z,99.99
2023-02-18T03:41:59.851Z,99.99
2023-02-18T03:42:59.794Z,99.99
2023-02-18T03:43:59.772Z,99.99
2023-02-18T03:44:59.752Z,99.99
2023-02-18T03:45:59.770Z,99.99
2023-02-18T03:46:59.753Z,99.99
2023-02-18T03:47:59.704Z,99.99
2023-02-18T03:48:59.694Z,99.99
2023-02-18T03:49:59.667Z,99.99
2023-02-18T03:50:59.649Z,99.99
2023-02-18T03:51:59.673Z,99.99
2023-02-18T03:52:59.618Z,99.99
2023-02-18T03:53:59.595Z,99.99
2023-02-18T03:54:59.580Z,99.99
2023-02-18T03:55:59.559Z,99.99
2023-02-18T03:56:59.570Z,99.99
2023-02-18T03:57:59.584Z,99.99
2023-02-18T03:58:59.508Z,99.99
2023-02-18T03:59:59.494Z,99.99
2023-02-18T04:00:59.514Z,99.99
2023-02-18T04:01:59.451Z,99.99
2023-02-18T04:02:59.438Z,99.99
2023-02-18T04:03:59.483Z,99.99
2023-02-18T04:04:59.406Z,99.99
2023-02-18T04:05:59.381Z,99.99
2023-02-18T04:06:59.364Z,99.99
2023-02-18T04:07:59.349Z,99.99
2023-02-18T04:08:59.342Z,99.99
2023-02-18T04:09:59.312Z,99.99
2023-02-18T04:10:59.301Z,99.99
2023-02-18T04:11:59.283Z,99.99
2023-02-18T04:12:59.264Z,99.99
2023-02-18T04:13:59.252Z,99.99
2023-02-18T04:14:59.297Z,99.99
2023-02-18T04:15:59.210Z,99.99
2023-02-18T04:16:59.190Z,99.99
2023-02-18T04:17:59.177Z,99.99
2023-02-18T04:18:59.156Z,99.99
2023-02-18T04:19:59.147Z,99.99
2023-02-18T04:20:59.162Z,99.99
2023-02-18T04:21:59.100Z,99.99
2023-02-18T04:22:59.085Z,99.99
2023-02-18T04:23:59.068Z,99.99
2023-02-18T04:24:59.054Z,99.99
2023-02-18T04:25:59.033Z,99.99
2023-02-18T04:26:59.045Z,99.99
2023-02-18T04:27:58.998Z,99.99
2023-02-18T04:28:59.000Z,99.99
2023-02-18T04:29:59.034Z,99.99
2023-02-18T04:30:59.048Z,99.99
2023-02-18T04:31:58.970Z,99.99
2023-02-18T04:32:58.908Z,99.99
2023-02-18T04:33:58.918Z,99.99
2023-02-18T04:34:58.877Z,99.99
2023-02-18T04:35:58.863Z,99.99
2023-02-18T04:36:58.865Z,99.99
2023-02-18T04:37:58.822Z,99.99
2023-02-18T04:38:58.845Z,99.99
2023-02-18T04:39:58.788Z,99.99
2023-02-18T04:40:58.777Z,99.99
2023-02-18T04:41:58.751Z,99.99
2023-02-18T04:42:58.737Z,99.99
2023-02-18T04:43:58.752Z,99.99
2023-02-18T04:44:58.711Z,99.99
2023-02-18T04:45:58.778Z,99.99
2023-02-18T04:46:58.663Z,99.99
2023-02-18T04:47:58.667Z,99.99
2023-02-18T04:48:58.646Z,99.99
2023-02-18T04:49:58.613Z,99.99
2023-02-18T04:50:58.598Z,99.99
2023-02-18T04:51:58.581Z,99.99
2023-02-18T04:52:58.587Z,99.99
2023-02-18T04:53:59.194Z,99.99
2023-02-18T04:54:58.549Z,99.99
2023-02-18T04:55:58.519Z,99.99
2023-02-18T04:56:58.504Z,99.99
2023-02-18T04:57:58.518Z,99.99
2023-02-18T04:58:58.460Z,99.99
2023-02-18T04:59:58.438Z,99.99
2023-02-18T05:00:58.422Z,99.99
2023-02-18T05:01:58.413Z,99.99
2023-02-18T05:02:58.426Z,99.99
2023-02-18T05:03:58.447Z,99.99
2023-02-18T05:04:58.365Z,99.99
2023-02-18T05:05:58.333Z,99.99
2023-02-18T05:06:58.352Z,99.99
2023-02-18T05:07:58.306Z,99.99
2023-02-18T05:08:58.300Z,99.99
2023-02-18T05:09:58.305Z,99.99
2023-02-18T05:10:58.254Z,99.99
2023-02-18T05:11:58.237Z,99.99
2023-02-18T05:12:58.226Z,99.99
2023-02-18T05:13:58.206Z,99.99
2023-02-18T05:14:58.233Z,99.99
2023-02-18T05:15:58.225Z,99.99
2023-02-18T05:16:58.178Z,99.99
2023-02-18T05:17:58.138Z,99.99
2023-02-18T05:18:58.126Z,99.99
2023-02-18T05:19:58.105Z,99.99
2023-02-18T05:20:58.088Z,99.99
2023-02-18T05:21:58.067Z,99.99
2023-02-18T05:22:58.051Z,99.99
2023-02-18T05:23:58.039Z,99.99
2023-02-18T05:24:58.013Z,99.99
2023-02-18T05:25:58.046Z,99.99
2023-02-18T05:26:57.980Z,99.99
2023-02-18T05:27:57.960Z,99.99
2023-02-18T05:28:57.946Z,99.99
2023-02-18T05:29:57.979Z,99.99
2023-02-18T05:30:57.952Z,99.99
2023-02-18T05:31:57.960Z,99.99
2023-02-18T05:32:57.876Z,99.99
2023-02-18T05:33:57.860Z,99.99
2023-02-18T05:34:57.853Z,99.99
2023-02-18T05:35:57.827Z,99.99
2023-02-18T05:36:57.834Z,99.99
2023-02-18T05:37:57.788Z,99.99
2023-02-18T05:38:57.772Z,99.99
2023-02-18T05:39:57.787Z,99.99
2023-02-18T05:40:57.731Z,99.99
2023-02-18T05:41:57.719Z,99.99
2023-02-18T05:42:57.706Z,99.99
2023-02-18T05:43:57.684Z,99.99
2023-02-18T05:44:57.720Z,99.99
2023-02-18T05:45:57.648Z,99.99
2023-02-18T05:46:57.632Z,99.99
2023-02-18T05:47:57.617Z,99.99
2023-02-18T05:48:57.592Z,99.99
2023-02-18T05:49:57.581Z,99.99
2023-02-18T05:50:57.565Z,99.99
2023-02-18T05:51:57.567Z,99.99
2023-02-18T05:52:57.534Z,99.99
2023-02-18T05:53:57.509Z,99.99
2023-02-18T05:54:57.488Z,99.99
2023-02-18T05:55:57.527Z,99.99
2023-02-18T05:56:57.455Z,99.99
2023-02-18T05:57:57.454Z,99.99
2023-02-18T05:58:57.449Z,99.99
2023-02-18T05:59:59.272Z,99.99
2023-02-18T06:00:57.389Z,99.99
2023-02-18T06:01:57.370Z,99.99
2023-02-18T06:02:57.482Z,99.99
2023-02-18T06:03:57.338Z,99.99
2023-02-18T06:04:57.319Z,99.99
2023-02-18T06:05:57.532Z,99.99
2023-02-18T06:06:57.283Z,99.99
2023-02-18T06:07:57.271Z,99.99
2023-02-18T06:08:57.724Z,99.99
2023-02-18T06:09:57.239Z,99.99
2023-02-18T06:10:57.218Z,99.99
2023-02-18T06:11:57.211Z,99.99
2023-02-18T06:12:57.189Z,99.99
2023-02-18T06:13:57.201Z,99.99
2023-02-18T06:14:57.167Z,99.99
2023-02-18T06:15:57.172Z,99.99
2023-02-18T06:16:57.118Z,99.99
2023-02-18T06:17:57.095Z,99.99
2023-02-18T06:18:57.085Z,99.99
2023-02-18T06:19:57.065Z,99.99
2023-02-18T06:20:57.047Z,99.99
2023-02-18T06:21:57.026Z,99.99
2023-02-18T06:22:57.007Z,99.99
2023-02-18T06:23:57.030Z,99.99
2023-02-18T06:24:57.003Z,99.99
2023-02-18T06:25:56.958Z,99.99
2023-02-18T06:26:56.943Z,99.99
2023-02-18T06:27:56.926Z,99.99
2023-02-18T06:28:56.902Z,99.99
2023-02-18T06:29:56.940Z,99.99
2023-02-18T06:30:56.865Z,99.99
2023-02-18T06:31:56.945Z,99.99
2023-02-18T06:32:56.831Z,99.99
2023-02-18T06:33:56.818Z,99.99
2023-02-18T06:34:56.821Z,99.99
2023-02-18T06:35:56.805Z,99.99
2023-02-18T06:36:56.794Z,99.99
2023-02-18T06:37:56.746Z,99.99
2023-02-18T06:38:56.727Z,99.99
2023-02-18T06:39:56.743Z,99.99
2023-02-18T06:40:56.698Z,99.99
2023-02-18T06:41:56.812Z,99.99
2023-02-18T06:42:56.654Z,99.99
2023-02-18T06:43:56.638Z,99.99
2023-02-18T06:44:56.624Z,99.99
2023-02-18T06:45:56.617Z,99.99
2023-02-18T06:46:56.668Z,99.99
2023-02-18T06:47:56.594Z,99.99
2023-02-18T06:48:56.550Z,99.99
2023-02-18T06:49:56.568Z,99.99
2023-02-18T06:50:56.532Z,99.99
2023-02-18T06:51:56.498Z,99.99
2023-02-18T06:52:56.491Z,99.99
2023-02-18T06:53:56.482Z,99.99
2023-02-18T06:54:56.442Z,99.99
2023-02-18T06:55:56.430Z,99.99
2023-02-18T06:56:56.407Z,99.99
2023-02-18T06:57:56.394Z,99.99
2023-02-18T06:58:56.370Z,99.99
2023-02-18T06:59:56.387Z,99.99
2023-02-18T07:00:56.410Z,99.99
2023-02-18T07:01:56.328Z,99.99
2023-02-18T07:02:56.306Z,99.99
2023-02-18T07:03:56.355Z,99.99
2023-02-18T07:04:56.265Z,99.99
2023-02-18T07:05:56.256Z,99.99
2023-02-18T07:06:56.240Z,99.99
2023-02-18T07:07:56.232Z,99.99
2023-02-18T07:08:56.196Z,99.99
2023-02-18T07:09:56.181Z,99.99
2023-02-18T07:10:56.164Z,99.99
2023-02-18T07:11:56.171Z,99.99
2023-02-18T07:12:56.134Z,99.99
2023-02-18T07:13:56.117Z,99.99
2023-02-18T07:14:56.143Z,99.99
2023-02-18T07:15:56.127Z,99.99
2023-02-18T07:16:56.081Z,99.99
2023-02-18T07:17:56.085Z,99.99
2023-02-18T07:18:56.044Z,99.99
2023-02-18T07:19:56.007Z,99.99
2023-02-18T07:20:55.996Z,99.99
2023-02-18T07:21:55.979Z,99.99
2023-02-18T07:22:55.983Z,99.99
2023-02-18T07:23:55.963Z,99.99
2023-02-18T07:24:55.931Z,99.99
2023-02-18T07:25:55.903Z,99.99
2023-02-18T07:26:55.888Z,99.99
2023-02-18T07:27:55.866Z,99.99
2023-02-18T07:28:55.860Z,99.99
2023-02-18T07:29:55.864Z,99.99
2023-02-18T07:30:55.853Z,99.99
2023-02-18T07:31:55.820Z,99.99
2023-02-18T07:32:55.805Z,99.99
2023-02-18T07:33:55.768Z,99.99
2023-02-18T07:34:55.755Z,99.99
2023-02-18T07:35:55.723Z,99.99
2023-02-18T07:36:55.746Z,99.99
2023-02-18T07:37:55.708Z,99.99
2023-02-18T07:38:55.673Z,99.99
2023-02-18T07:39:55.684Z,99.99
2023-02-18T07:40:55.670Z,99.99
2023-02-18T07:41:55.621Z,99.99
2023-02-18T07:42:55.600Z,99.99
2023-02-18T07:43:55.586Z,99.99
2023-02-18T07:44:55.565Z,99.99
2023-02-18T07:45:55.667Z,99.99
2023-02-18T07:46:55.528Z,99.99
2023-02-18T07:47:55.521Z,99.99
2023-02-18T07:48:55.494Z,99.99
2023-02-18T07:49:55.479Z,99.99
2023-02-18T07:50:55.465Z,99.99
2023-02-18T07:51:55.485Z,99.99
2023-02-18T07:52:55.440Z,99.99
2023-02-18T07:53:55.408Z,99.99
2023-02-18T07:54:55.392Z,99.99
2023-02-18T07:55:55.425Z,99.99
2023-02-18T07:56:55.381Z,99.99
2023-02-18T07:57:55.380Z,99.99
2023-02-18T07:58:55.318Z,99.99
2023-02-18T07:59:55.343Z,99.99
2023-02-18T08:00:55.291Z,99.99
2023-02-18T08:01:55.325Z,99.99
2023-02-18T08:02:55.254Z,99.99
2023-02-18T08:03:55.318Z,99.99
2023-02-18T08:04:55.220Z,99.99
2023-02-18T08:05:55.221Z,99.99
2023-02-18T08:06:55.182Z,99.99
2023-02-18T08:07:55.161Z,99.99
2023-02-18T08:08:55.142Z,99.99
2023-02-18T08:09:55.169Z,99.99
2023-02-18T08:10:55.111Z,99.99
2023-02-18T08:11:55.095Z,99.99
2023-02-18T08:12:55.072Z,99.99
2023-02-18T08:13:55.056Z,99.99
2023-02-18T08:14:55.038Z,99.99
2023-02-18T08:15:55.069Z,99.99
2023-02-18T08:16:55.088Z,99.99
2023-02-18T08:17:54.990Z,99.99
2023-02-18T08:18:54.970Z,99.99
2023-02-18T08:19:54.958Z,99.99
2023-02-18T08:20:54.935Z,99.99
2023-02-18T08:21:54.962Z,99.99
2023-02-18T08:22:54.945Z,99.99
2023-02-18T08:23:54.895Z,99.99
2023-02-18T08:24:54.867Z,99.99
2023-02-18T08:25:54.926Z,99.99
2023-02-18T08:27:00.796Z,99.99
2023-02-18T08:27:54.810Z,99.99
2023-02-18T08:28:54.811Z,99.99
2023-02-18T08:29:54.778Z,99.99
2023-02-18T08:30:54.795Z,99.99
2023-02-18T08:31:54.909Z,99.99
2023-02-18T08:32:54.767Z,99.99
2023-02-18T08:33:54.719Z,99.99
2023-02-18T08:34:54.714Z,99.99
2023-02-18T08:35:54.674Z,99.99
2023-02-18T08:36:54.666Z,99.99
2023-02-18T08:37:55.145Z,99.99
2023-02-18T08:38:54.638Z,99.99
2023-02-18T08:39:54.606Z,99.99
2023-02-18T08:40:54.587Z,99.99
2023-02-18T08:41:54.586Z,99.99
2023-02-18T08:42:54.551Z,99.99
2023-02-18T08:43:54.585Z,99.99
2023-02-18T08:44:54.518Z,99.99
2023-02-18T08:45:54.589Z,99.99
2023-02-18T08:46:54.729Z,99.99
2023-02-18T08:48:18.862Z,99.99
2023-02-18T08:48:54.448Z,99.99
2023-02-18T08:49:54.436Z,99.99
2023-02-18T08:50:54.427Z,99.99
2023-02-18T08:51:54.394Z,99.99
2023-02-18T08:52:54.430Z,99.99
2023-02-18T08:53:54.385Z,99.99
2023-02-18T08:54:54.341Z,99.99
2023-02-18T08:55:54.342Z,99.99
2023-02-18T08:56:54.321Z,99.99
2023-02-18T08:57:54.294Z,99.99
2023-02-18T08:58:54.331Z,99.99
2023-02-18T08:59:54.257Z,99.99
2023-02-18T09:00:54.246Z,99.99
2023-02-18T09:01:54.496Z,99.99
2023-02-18T09:02:54.851Z,99.99
2023-02-18T09:03:54.323Z,99.99
2023-02-18T09:04:54.189Z,99.99
2023-02-18T09:05:54.153Z,99.99
2023-02-18T09:06:54.136Z,99.99
2023-02-18T09:07:54.173Z,99.99
2023-02-18T09:08:54.101Z,99.99
2023-02-18T09:09:54.099Z,99.99
2023-02-18T09:10:54.130Z,99.99
2023-02-18T09:11:54.051Z,99.99
2023-02-18T09:12:54.030Z,99.99
2023-02-18T09:13:54.020Z,99.99
2023-02-18T09:14:54.039Z,99.99
2023-02-18T09:15:54.036Z,99.99
2023-02-18T09:16:53.973Z,99.99
2023-02-18T09:17:53.952Z,99.99
2023-02-18T09:18:53.939Z,99.99
2023-02-18T09:19:53.926Z,99.99
2023-02-18T09:20:53.936Z,99.99
2023-02-18T09:21:53.886Z,99.99
2023-02-18T09:22:53.913Z,99.99
2023-02-18T09:23:53.839Z,99.99
2023-02-18T09:24:53.821Z,99.99
2023-02-18T09:25:53.822Z,99.99
2023-02-18T09:26:53.787Z,99.99
2023-02-18T09:27:53.766Z,99.99
2023-02-18T09:28:53.758Z,99.99
2023-02-18T09:29:53.735Z,99.99
2023-02-18T09:30:53.721Z,99.99
2023-02-18T09:31:53.813Z,99.99
2023-02-18T09:32:53.677Z,99.99
2023-02-18T09:33:53.691Z,99.99
2023-02-18T09:34:53.649Z,99.99
2023-02-18T09:35:53.644Z,99.99
2023-02-18T09:36:53.640Z,99.99
2023-02-18T09:37:53.594Z,99.99
2023-02-18T09:38:53.578Z,99.99
2023-02-18T09:39:53.568Z,99.99
2023-02-18T09:40:53.541Z,99.99
2023-02-18T09:41:53.747Z,99.99
2023-02-18T09:42:53.545Z,99.99
2023-02-18T09:43:53.489Z,99.99
2023-02-18T09:44:53.470Z,99.99
2023-02-18T09:45:53.477Z,99.99
2023-02-18T09:46:53.447Z,99.99
2023-02-18T09:47:53.489Z,99.99
2023-02-18T09:48:53.425Z,99.99
2023-02-18T09:49:53.390Z,99.99
2023-02-18T09:50:53.371Z,99.99
2023-02-18T09:51:53.354Z,99.99
2023-02-18T09:52:53.363Z,99.99
2023-02-18T09:53:53.324Z,99.99
2023-02-18T09:54:53.301Z,99.99
2023-02-18T09:55:53.281Z,99.99
2023-02-18T09:56:53.273Z,99.99
2023-02-18T09:57:53.290Z,99.99
2023-02-18T09:58:53.239Z,99.99
2023-02-18T09:59:53.217Z,99.99
2023-02-18T10:00:53.216Z,99.99
2023-02-18T10:01:53.222Z,99.99
2023-02-18T10:02:53.204Z,99.99
2023-02-18T10:03:55.713Z,99.99
2023-02-18T10:04:53.135Z,99.99
2023-02-18T10:05:53.123Z,99.99
2023-02-18T10:06:53.109Z,99.99
2023-02-18T10:07:53.087Z,99.99
2023-02-18T10:08:53.076Z,99.99
2023-02-18T10:09:53.054Z,99.99
2023-02-18T10:10:53.060Z,99.99
2023-02-18T10:11:53.074Z,99.99
2023-02-18T10:12:53.008Z,99.99
2023-02-18T10:13:52.975Z,99.99
2023-02-18T10:14:52.959Z,99.99
2023-02-18T10:15:53.084Z,99.99
2023-02-18T10:16:52.953Z,99.99
2023-02-18T10:17:52.939Z,99.99
2023-02-18T10:18:52.893Z,99.99
2023-02-18T10:19:52.878Z,99.99
2023-02-18T10:20:52.866Z,99.99
2023-02-18T10:21:52.839Z,99.99
2023-02-18T10:22:52.830Z,99.99
2023-02-18T10:23:52.808Z,99.99
2023-02-18T10:24:52.820Z,99.99
2023-02-18T10:25:52.801Z,99.99
2023-02-18T10:26:52.770Z,99.99
2023-02-18T10:27:52.741Z,99.99
2023-02-18T10:28:52.740Z,99.99
2023-02-18T10:29:52.705Z,99.99
2023-02-18T10:30:52.717Z,99.99
2023-02-18T10:31:52.829Z,99.99
2023-02-18T10:32:52.661Z,99.99
2023-02-18T10:33:52.648Z,99.99
2023-02-18T10:34:52.647Z,99.99
2023-02-18T10:35:52.623Z,99.99
2023-02-18T10:36:52.584Z,99.99
2023-02-18T10:37:52.608Z,99.99
2023-02-18T10:38:52.561Z,99.99
2023-02-18T10:39:52.533Z,99.99
2023-02-18T10:40:52.521Z,99.99
2023-02-18T10:41:52.506Z,99.99
2023-02-18T10:42:52.518Z,99.99
2023-02-18T10:43:52.492Z,99.99
2023-02-18T10:44:52.449Z,99.99
2023-02-18T10:45:52.423Z,99.99
2023-02-18T10:46:52.433Z,99.99
2023-02-18T10:47:52.418Z,99.99
2023-02-18T10:48:52.410Z,99.99
2023-02-18T10:49:52.369Z,99.99
2023-02-18T10:50:52.341Z,99.99
2023-02-18T10:51:52.320Z,99.99
2023-02-18T10:52:52.316Z,99.99
2023-02-18T10:53:52.289Z,99.99
2023-02-18T10:54:52.271Z,99.99
2023-02-18T10:55:52.252Z,99.99
2023-02-18T10:56:52.232Z,99.99
2023-02-18T10:57:52.264Z,99.99
2023-02-18T10:58:52.200Z,99.99
2023-02-18T10:59:52.178Z,99.99
2023-02-18T11:00:52.165Z,99.99
2023-02-18T11:01:52.161Z,99.99
2023-02-18T11:02:52.141Z,99.99
2023-02-18T11:03:52.163Z,99.99
2023-02-18T11:04:52.147Z,99.99
2023-02-18T11:05:52.087Z,99.99
2023-02-18T11:06:52.074Z,99.99
2023-02-18T11:07:52.036Z,99.99
2023-02-18T11:08:52.021Z,99.99
2023-02-18T11:09:51.999Z,99.99
2023-02-18T11:10:52.009Z,99.99
2023-02-18T11:12:01.420Z,99.99
2023-02-18T11:12:51.954Z,99.99
2023-02-18T11:13:51.931Z,99.99
2023-02-18T11:14:51.911Z,99.99
2023-02-18T11:15:51.946Z,99.99
2023-02-18T11:16:51.877Z,99.99
2023-02-18T11:17:51.882Z,99.99
2023-02-18T11:18:51.852Z,99.99
2023-02-18T11:19:51.822Z,99.99
2023-02-18T11:20:51.808Z,99.99
2023-02-18T11:21:51.784Z,99.99
2023-02-18T11:22:51.768Z,99.99
2023-02-18T11:23:51.797Z,99.99
2023-02-18T11:24:51.733Z,99.99
2023-02-18T11:25:51.718Z,99.99
2023-02-18T11:26:51.698Z,99.99
2023-02-18T11:27:51.724Z,99.99
2023-02-18T11:28:51.665Z,99.99
2023-02-18T11:29:51.647Z,99.99
2023-02-18T11:30:51.626Z,99.99
2023-02-18T11:31:51.736Z,99.99
2023-02-18T11:32:51.590Z,99.99
2023-02-18T11:33:51.581Z,99.99
2023-02-18T11:34:51.561Z,99.99
2023-02-18T11:35:51.550Z,99.99
2023-02-18T11:36:51.521Z,99.99
2023-02-18T11:37:51.500Z,99.99
2023-02-18T11:38:51.508Z,99.99
2023-02-18T11:39:51.463Z,99.99
2023-02-18T11:40:51.469Z,99.99
2023-02-18T11:41:51.459Z,99.99
2023-02-18T11:42:51.442Z,99.99
2023-02-18T11:43:51.399Z,99.99
2023-02-18T11:44:51.384Z,99.99
2023-02-18T11:45:51.357Z,99.99
2023-02-18T11:46:51.384Z,99.99
2023-02-18T11:47:51.324Z,99.99
2023-02-18T11:48:51.313Z,99.99
2023-02-18T11:49:51.291Z,99.99
2023-02-18T11:50:51.277Z,99.99
2023-02-18T11:51:51.263Z,99.99
2023-02-18T11:52:51.293Z,99.99
2023-02-18T11:53:51.214Z,99.99
2023-02-18T11:54:51.204Z,99.99
2023-02-18T11:55:51.182Z,99.99
2023-02-18T11:56:53.589Z,99.99
2023-02-18T11:57:51.159Z,99.99
2023-02-18T11:58:51.136Z,99.99
2023-02-18T11:59:51.116Z,99.99
2023-02-18T12:00:51.115Z,99.99
2023-02-18T12:01:51.130Z,99.99
2023-02-18T12:02:51.093Z,99.99
2023-02-18T12:03:51.048Z,99.99
2023-02-18T12:04:51.044Z,99.99
2023-02-18T12:05:51.010Z,99.99
2023-02-18T12:06:50.999Z,99.99
2023-02-18T12:07:50.981Z,99.99
2023-02-18T12:08:50.959Z,99.99
2023-02-18T12:09:50.942Z,99.99
2023-02-18T12:10:50.929Z,99.99
2023-02-18T12:11:50.912Z,99.99
2023-02-18T12:12:50.898Z,99.99
2023-02-18T12:13:50.870Z,99.99
2023-02-18T12:14:50.876Z,99.99
2023-02-18T12:15:50.849Z,99.99
2023-02-18T12:16:50.857Z,99.99
2023-02-18T12:17:50.802Z,99.99
2023-02-18T12:18:50.800Z,99.99
2023-02-18T12:19:50.765Z,99.99
2023-02-18T12:20:50.800Z,99.99
2023-02-18T12:21:50.721Z,99.99
2023-02-18T12:22:50.730Z,99.99
2023-02-18T12:23:50.711Z,99.99
2023-02-18T12:24:50.681Z,99.99
2023-02-18T12:25:50.666Z,99.99
2023-02-18T12:26:50.663Z,99.99
2023-02-18T12:27:50.616Z,99.99
2023-02-18T12:28:50.613Z,99.99
2023-02-18T12:29:50.598Z,99.99
2023-02-18T12:30:50.612Z,99.99
2023-02-18T12:31:50.583Z,99.99
2023-02-18T12:32:50.549Z,99.99
2023-02-18T12:33:50.518Z,99.99
2023-02-18T12:34:50.497Z,99.99
2023-02-18T12:35:50.499Z,99.99
2023-02-18T12:36:50.463Z,99.99
2023-02-18T12:37:50.440Z,99.99
2023-02-18T12:38:50.436Z,99.99
2023-02-18T12:39:50.403Z,99.99
2023-02-18T12:40:50.381Z,99.99
2023-02-18T12:41:50.380Z,99.99
2023-02-18T12:42:50.375Z,99.99
2023-02-18T12:43:50.333Z,99.99
2023-02-18T12:44:50.338Z,99.99
2023-02-18T12:45:50.310Z,99.99
2023-02-18T12:46:50.303Z,99.99
2023-02-18T12:47:50.288Z,99.99
2023-02-18T12:48:50.244Z,99.99
2023-02-18T12:49:50.229Z,99.99
2023-02-18T12:50:50.206Z,99.99
2023-02-18T12:51:50.196Z,99.99